createdAt,value
2022-09-27T00:05:15.938Z,16.7
2022-09-27T00:10:51.916Z,16.7
2022-09-27T00:16:26.907Z,16.7
2022-09-27T00:22:02.451Z,16.7
2022-09-27T00:27:37.811Z,16.7
2022-09-27T00:33:12.676Z,16.7
2022-09-27T00:38:47.331Z,16.6
2022-09-27T00:44:22.215Z,16.6
2022-09-27T00:49:57.238Z,16.6
2022-09-27T00:55:31.982Z,16.5
2022-09-27T01:01:07.289Z,16.5
2022-09-27T01:06:44.091Z,16.5
2022-09-27T01:12:19.937Z,16.4
2022-09-27T01:17:54.793Z,16.4
2022-09-27T01:23:29.797Z,16.4
2022-09-27T01:29:12.917Z,16.4
2022-09-27T01:34:48.579Z,16.3
2022-09-27T01:40:23.694Z,16.3
2022-09-27T01:46:00.233Z,16.3
2022-09-27T01:51:36.055Z,16.2
2022-09-27T01:57:10.915Z,16.2
2022-09-27T02:02:46.446Z,16.2
2022-09-27T02:08:22.792Z,16.2
2022-09-27T02:13:57.719Z,16.1
2022-09-27T02:19:32.818Z,16.1
2022-09-27T02:25:07.872Z,16.1
2022-09-27T02:30:52.923Z,16.1
2022-09-27T02:36:28.896Z,16.1
2022-09-27T02:42:04.412Z,16
2022-09-27T02:47:39.444Z,16
2022-09-27T02:53:14.132Z,16
2022-09-27T02:58:48.978Z,16
2022-09-27T03:04:25.064Z,16
2022-09-27T03:10:00.103Z,16
2022-09-27T03:15:35.156Z,16
2022-09-27T03:21:10.172Z,15.9
2022-09-27T03:26:46.015Z,15.9
2022-09-27T03:32:20.853Z,15.9
2022-09-27T03:37:56.037Z,15.9
2022-09-27T03:43:31.195Z,15.9
2022-09-27T03:49:06.164Z,15.9
2022-09-27T03:54:40.959Z,15.9
2022-09-27T04:00:16.067Z,15.9
2022-09-27T04:05:50.993Z,15.9
2022-09-27T04:11:39.866Z,15.9
2022-09-27T04:17:15.943Z,15.9
2022-09-27T04:22:51.154Z,15.9
2022-09-27T04:28:25.974Z,15.9
2022-09-27T04:34:01.150Z,15.9
2022-09-27T04:39:35.885Z,15.9
2022-09-27T04:45:11.778Z,15.9
2022-09-27T04:50:47.521Z,15.9
2022-09-27T04:56:22.502Z,15.9
2022-09-27T05:01:57.888Z,15.9
2022-09-27T05:07:33.793Z,15.9
2022-09-27T05:13:08.827Z,15.9
2022-09-27T05:18:44.570Z,15.9
2022-09-27T05:24:19.356Z,15.9
2022-09-27T05:29:54.202Z,15.9
2022-09-27T05:35:29.982Z,15.8
2022-09-27T05:41:05.263Z,15.8
2022-09-27T05:46:41.552Z,15.8
2022-09-27T05:52:19.229Z,15.8
2022-09-27T05:57:58.596Z,15.8
2022-09-27T06:03:33.589Z,15.8
2022-09-27T06:09:17.857Z,15.8
2022-09-27T06:14:52.796Z,15.8
2022-09-27T06:20:27.950Z,15.8
2022-09-27T06:26:03.743Z,15.8
2022-09-27T06:31:38.648Z,15.8
2022-09-27T06:37:13.409Z,15.8
2022-09-27T06:42:48.188Z,15.8
2022-09-27T06:48:23.416Z,15.8
2022-09-27T06:53:59.579Z,15.7
2022-09-27T06:59:34.481Z,15.5
2022-09-27T07:05:09.387Z,15.3
2022-09-27T07:10:45.633Z,15.3
2022-09-27T07:16:20.878Z,15.3
2022-09-27T07:21:57.470Z,15.3
2022-09-27T07:27:32.413Z,15.3
2022-09-27T07:33:09.700Z,15.5
2022-09-27T07:38:45.759Z,15.6
2022-09-27T07:44:20.958Z,15.8
2022-09-27T07:49:55.754Z,15.8
2022-09-27T07:55:30.855Z,15.6
2022-09-27T08:01:05.950Z,15.7
2022-09-27T08:06:42.137Z,15.7
2022-09-27T08:12:17.993Z,15.9
2022-09-27T08:17:53.113Z,16.1
2022-09-27T08:23:28.056Z,16.3
2022-09-27T08:29:03.101Z,16.1
2022-09-27T08:34:38.086Z,15.9
2022-09-27T08:40:13.457Z,15.9
2022-09-27T08:45:49.548Z,15.7
2022-09-27T08:51:27.110Z,15.9
2022-09-27T08:57:03.197Z,16.2
2022-09-27T09:02:38.080Z,16.4
2022-09-27T09:08:13.486Z,16.4
2022-09-27T09:13:48.336Z,16.5
2022-09-27T09:19:24.418Z,16.4
2022-09-27T09:24:59.457Z,16.3
2022-09-27T09:30:34.663Z,16.2
2022-09-27T09:36:11.069Z,16.3
2022-09-27T09:41:47.121Z,16.7
2022-09-27T09:47:31.014Z,17.1
2022-09-27T09:53:06.422Z,17.5
2022-09-27T09:58:41.537Z,17.6
2022-09-27T10:04:16.619Z,18
2022-09-27T10:09:52.542Z,18
2022-09-27T10:15:27.602Z,18
2022-09-27T10:21:02.642Z,17.7
2022-09-27T10:26:38.484Z,17.8
2022-09-27T10:32:13.265Z,18.1
2022-09-27T10:37:48.136Z,18.6
2022-09-27T10:43:27.470Z,18.1
2022-09-27T10:49:05.080Z,18.2
2022-09-27T10:54:40.137Z,19.2
2022-09-27T11:00:15.016Z,18.4
2022-09-27T11:05:51.075Z,17.8
2022-09-27T11:11:25.708Z,17.5
2022-09-27T11:17:00.384Z,17.1
2022-09-27T11:22:35.507Z,17.2
2022-09-27T11:28:10.245Z,17.1
2022-09-27T11:33:45.145Z,17.4
2022-09-27T11:39:20.642Z,18.5
2022-09-27T11:45:08.122Z,19
2022-09-27T11:52:16.751Z,19.1
2022-09-27T11:57:51.808Z,18.8
2022-09-27T12:03:27.540Z,20.6
2022-09-27T12:09:02.522Z,22.3
2022-09-27T12:14:38.267Z,21.3
2022-09-27T12:20:13.317Z,22.7
2022-09-27T12:25:49.197Z,21.5
2022-09-27T12:31:31.437Z,21.6
2022-09-27T12:37:07.835Z,22.8
2022-09-27T12:42:43.100Z,21.4
2022-09-27T12:48:18.696Z,19.1
2022-09-27T12:53:53.725Z,18.9
2022-09-27T12:59:28.456Z,18.1
2022-09-27T13:05:03.218Z,18.5
2022-09-27T13:10:39.220Z,19.9
2022-09-27T13:16:14.166Z,20.7
2022-09-27T13:21:50.963Z,20.9
2022-09-27T13:27:26.358Z,21.7
2022-09-27T13:33:09.230Z,21.3
2022-09-27T13:38:45.136Z,20.5
2022-09-27T13:44:39.794Z,21.3
2022-09-27T13:50:14.946Z,21.4
2022-09-27T13:55:51.271Z,20.6
2022-09-27T14:01:26.295Z,21
2022-09-27T14:07:02.567Z,21.3
2022-09-27T14:12:38.928Z,20.4
2022-09-27T14:18:13.914Z,20
2022-09-27T14:23:49.892Z,20
2022-09-27T14:29:25.792Z,19.6
2022-09-27T14:35:00.669Z,18.7
2022-09-27T14:40:35.472Z,17.4
2022-09-27T14:46:11.737Z,17.4
2022-09-27T14:51:47.266Z,17.7
2022-09-27T14:57:21.967Z,18.1
2022-09-27T15:02:56.996Z,17.8
2022-09-27T15:08:33.693Z,17.8
2022-09-27T15:14:08.417Z,18.3
2022-09-27T15:19:43.567Z,18.1
2022-09-27T15:25:19.731Z,19.2
2022-09-27T15:30:55.222Z,19.2
2022-09-27T15:36:31.809Z,20
2022-09-27T15:42:06.634Z,18.9
2022-09-27T15:47:41.954Z,18.4
2022-09-27T15:53:16.995Z,17.7
2022-09-27T15:58:52.785Z,17.5
2022-09-27T16:04:27.749Z,17.5
2022-09-27T16:10:03.366Z,17.3
2022-09-27T16:15:39.567Z,17.7
2022-09-27T16:21:14.317Z,18.2
2022-09-27T16:26:50.301Z,17.7
2022-09-27T16:32:25.967Z,17.4
2022-09-27T16:38:00.859Z,17
2022-09-27T16:43:36.477Z,17
2022-09-27T16:49:11.472Z,16.9
2022-09-27T16:54:46.965Z,16.9
2022-09-27T17:00:21.888Z,16.7
2022-09-27T17:05:56.939Z,16.6
2022-09-27T17:11:53.688Z,16.5
2022-09-27T17:17:26.248Z,16.5
2022-09-27T17:23:00.858Z,16.3
2022-09-27T17:28:35.584Z,15.8
2022-09-27T17:34:11.307Z,15.8
2022-09-27T17:39:47.453Z,15.8
2022-09-27T17:45:22.702Z,15.6
2022-09-27T17:50:57.370Z,15.5
2022-09-27T17:56:32.967Z,15.4
2022-09-27T18:02:07.657Z,15.3
2022-09-27T18:07:44.720Z,15.3
2022-09-27T18:13:44.251Z,15.8
2022-09-27T18:19:17.531Z,16
2022-09-27T18:24:56.357Z,16.1
2022-09-27T18:30:32.145Z,16.1
2022-09-27T18:36:08.132Z,16.1
2022-09-27T18:41:42.977Z,16.2
2022-09-27T18:47:19.580Z,16.2
2022-09-27T18:52:56.533Z,16.2
2022-09-27T18:58:31.379Z,16.2
2022-09-27T19:04:06.320Z,16.2
2022-09-27T19:09:41.490Z,16.2
2022-09-27T19:15:17.813Z,16.2
2022-09-27T19:20:54.268Z,16.2
2022-09-27T19:26:29.079Z,16.2
2022-09-27T19:32:04.256Z,16.2
2022-09-27T19:37:40.564Z,16.2
2022-09-27T19:43:15.129Z,16.2
2022-09-27T19:48:59.729Z,16.1
2022-09-27T19:54:34.602Z,16.1
2022-09-27T20:00:10.523Z,16.1
2022-09-27T20:05:45.365Z,16.1
2022-09-27T20:11:42.232Z,16.1
2022-09-27T20:17:15.179Z,16.1
2022-09-27T20:22:50.103Z,16.1
2022-09-27T20:28:24.912Z,16.1
2022-09-27T20:33:59.882Z,16.1
2022-09-27T20:39:35.262Z,16.1
2022-09-27T20:45:10.240Z,16.1
2022-09-27T20:50:44.920Z,16.1
2022-09-27T20:56:21.165Z,16.1
2022-09-27T21:01:55.939Z,16.1
2022-09-27T21:07:31.968Z,16.1
2022-09-27T21:13:28.720Z,16.1
2022-09-27T21:19:02.851Z,16
2022-09-27T21:24:37.805Z,16
2022-09-27T21:30:16.599Z,16
2022-09-27T21:35:51.758Z,16
2022-09-27T21:41:26.908Z,16
2022-09-27T21:47:02.394Z,16
2022-09-27T21:52:38.468Z,15.9
2022-09-27T21:58:13.657Z,15.9
2022-09-27T22:03:49.482Z,15.9
2022-09-27T22:09:24.475Z,16
2022-09-27T22:14:59.346Z,16
2022-09-27T22:20:36.991Z,16
2022-09-27T22:26:11.798Z,16
2022-09-27T22:31:47.913Z,16
2022-09-27T22:37:24.775Z,16
2022-09-27T22:42:59.528Z,16
2022-09-27T22:48:34.306Z,16
2022-09-27T22:54:09.369Z,16
2022-09-27T22:59:45.135Z,16
2022-09-27T23:05:20.063Z,16
2022-09-27T23:11:18.029Z,16
2022-09-27T23:16:50.845Z,16
2022-09-27T23:22:26.313Z,16
2022-09-27T23:28:01.037Z,16
2022-09-27T23:33:35.898Z,16
2022-09-27T23:39:10.663Z,16
2022-09-27T23:44:45.744Z,16
2022-09-27T23:50:21.810Z,16
2022-09-27T23:55:56.458Z,16
